Terminal Aerodrome Forecast
Issued by NWS Upton, NY

Home | Current Version | Previous Version | Text Only | Print | Product List | Glossary On
Versions: 1 2 3 4 5 6 7 8 9 10 11 12 13 14 15 16 17 18 19 20 21
000
FTUS41 KOKX 281700
TAFEWR
TAF
KEWR 281730Z 2818/2924 28009KT P6SM SCT030 BKN100
     FM282300 31008KT P6SM FEW030 BKN100
     FM290600 33008KT P6SM BKN150
     FM291200 34009KT P6SM SCT250
     FM291800 32009KT P6SM FEW035 SCT250=

USA.gov is the U.S. government's official web portal to all federal, state and local government web resources and services.